Time;durP1;ratioP1;P1;durP2;ratioP2;P2;SDS_P1;SDS_P2;PMS_P1;PMS_P2;Temp;Humidity;BMP_temperature;BMP_pressure;BME280_temperature;BME280_humidity;BME280_pressure;Samples;Min_cycle;Max_cycle;Signal;HPM_P1;HPM_P2
2021/10/10 00:01:42;;;;;;;36.08;14.00;;;;;;;5.37;57.95;101600.88;5030863;28;20034;-56
2021/10/10 00:04:08;;;;;;;37.47;13.85;;;;;;;5.39;58.15;101595.53;5031619;28;20454;-58
2021/10/10 00:06:34;;;;;;;45.90;15.30;;;;;;;5.35;58.09;101600.06;5031274;28;20036;-59
2021/10/10 00:09:00;;;;;;;34.03;14.52;;;;;;;5.34;58.30;101602.78;5032313;28;20037;-60
2021/10/10 00:11:26;;;;;;;29.65;15.02;;;;;;;5.30;58.42;101597.56;5032178;28;20100;-59
2021/10/10 00:13:51;;;;;;;42.30;15.43;;;;;;;5.30;58.21;101594.03;5031192;28;20038;-60
2021/10/10 00:16:17;;;;;;;33.60;13.52;;;;;;;5.29;58.74;101589.63;5031489;28;20050;-56
2021/10/10 00:18:42;;;;;;;36.97;15.60;;;;;;;5.05;58.46;101557.59;5032080;28;20462;-60
2021/10/10 00:21:08;;;;;;;37.55;15.13;;;;;;;5.00;58.79;101546.25;5031590;28;20032;-57
2021/10/10 00:23:33;;;;;;;30.23;12.80;;;;;;;5.23;58.38;101590.69;5031319;28;20041;-57
2021/10/10 00:25:59;;;;;;;31.30;13.02;;;;;;;5.21;58.50;101589.84;5031775;28;20458;-60
2021/10/10 00:28:24;;;;;;;31.20;13.73;;;;;;;5.14;58.71;101581.19;5032027;28;20029;-60
2021/10/10 00:30:50;;;;;;;32.20;12.98;;;;;;;5.18;59.00;101584.63;5013294;28;20025;-59
2021/10/10 00:33:15;;;;;;;31.55;13.18;;;;;;;5.13;58.81;101578.59;5031501;28;20112;-57
2021/10/10 00:35:41;;;;;;;30.73;14.13;;;;;;;5.22;58.97;101588.94;5013836;28;20026;-59
2021/10/10 00:38:06;;;;;;;26.05;13.82;;;;;;;5.19;59.15;101578.41;5032044;28;20030;-60
2021/10/10 00:40:32;;;;;;;30.17;13.93;;;;;;;5.23;59.06;101588.03;5030759;28;20473;-60
2021/10/10 00:42:58;;;;;;;32.95;14.95;;;;;;;5.22;58.60;101590.75;5030795;28;20044;-60
2021/10/10 00:45:23;;;;;;;31.75;14.20;;;;;;;5.19;58.42;101586.38;5031109;28;20036;-59
2021/10/10 00:47:48;;;;;;;32.92;13.95;;;;;;;5.12;58.97;101576.88;5031346;28;20021;-58
2021/10/10 00:50:14;;;;;;;32.75;14.60;;;;;;;5.13;58.97;101578.59;5031018;28;20033;-61
2021/10/10 00:52:43;;;;;;;30.67;14.32;;;;;;;5.16;58.55;101584.66;5029322;28;20120;-57
2021/10/10 00:55:10;;;;;;;29.45;14.85;;;;;;;5.14;59.17;101580.34;5031167;28;20030;-56
2021/10/10 00:57:38;;;;;;;30.45;14.45;;;;;;;5.15;58.93;101574.13;5031520;28;20037;-58
2021/10/10 01:00:05;;;;;;;28.52;14.55;;;;;;;5.14;59.01;101588.31;5029790;28;20030;-57
2021/10/10 01:02:32;;;;;;;34.30;14.98;;;;;;;4.97;58.91;101563.13;5030142;28;20040;-56
2021/10/10 01:04:57;;;;;;;30.40;15.05;;;;;;;5.13;59.38;101581.25;5031129;28;20030;-53
2021/10/10 01:07:25;;;;;;;29.13;14.85;;;;;;;4.89;59.43;101547.41;5031301;28;20469;-56
2021/10/10 01:09:50;;;;;;;28.38;15.20;;;;;;;5.03;59.35;101575.34;5030500;28;20607;-58
2021/10/10 01:12:16;;;;;;;26.52;15.02;;;;;;;5.08;59.57;101589.34;5030984;28;20044;-57
2021/10/10 01:14:42;;;;;;;28.63;14.63;;;;;;;5.07;59.09;101586.75;5030877;28;20048;-58
2021/10/10 01:17:07;;;;;;;26.90;14.40;;;;;;;4.83;59.76;101550.25;5032825;28;20022;-60
2021/10/10 01:19:34;;;;;;;31.10;15.05;;;;;;;5.07;59.73;101584.09;5033715;28;20034;-59
2021/10/10 01:22:02;;;;;;;26.55;14.35;;;;;;;5.08;59.14;101591.16;5034972;28;20045;-59
2021/10/10 01:24:28;;;;;;;23.13;13.85;;;;;;;5.06;59.74;101596.50;5033656;28;20033;-59
2021/10/10 01:26:54;;;;;;;27.92;14.07;;;;;;;5.05;59.16;101583.25;5034424;28;20109;-59
2021/10/10 01:29:19;;;;;;;27.75;13.98;;;;;;;5.03;59.34;101583.31;5034911;28;20025;-58
2021/10/10 01:31:45;;;;;;;26.25;13.90;;;;;;;4.83;59.47;101547.59;5034509;28;20462;-59
2021/10/10 01:34:11;;;;;;;30.73;14.35;;;;;;;5.01;59.26;101574.53;5033713;28;20116;-58
2021/10/10 01:36:37;;;;;;;32.90;14.48;;;;;;;5.00;59.29;101573.63;5034986;28;20108;-58
2021/10/10 01:39:03;;;;;;;25.35;14.43;;;;;;;4.98;59.16;101564.84;5033073;28;20116;-59
2021/10/10 01:41:29;;;;;;;29.85;14.25;;;;;;;5.03;59.38;101575.34;5035140;28;20026;-56
2021/10/10 01:43:54;;;;;;;32.42;14.43;;;;;;;5.03;59.27;101578.84;5034297;28;20106;-58
2021/10/10 01:46:20;;;;;;;29.10;14.73;;;;;;;5.02;59.63;101585.06;5033086;28;20041;-56
2021/10/10 01:48:45;;;;;;;26.15;14.15;;;;;;;5.01;59.80;101577.19;5034770;28;20108;-58
2021/10/10 01:51:12;;;;;;;33.03;15.05;;;;;;;4.95;59.61;101572.91;5033579;28;20121;-57
2021/10/10 01:53:38;;;;;;;27.80;14.30;;;;;;;4.72;58.98;101531.97;5034547;28;20525;-58
2021/10/10 01:56:04;;;;;;;30.40;14.65;;;;;;;4.86;59.79;101563.41;5033131;28;20026;-59
2021/10/10 01:58:29;;;;;;;29.58;14.30;;;;;;;4.98;59.41;101580.78;5034052;28;20466;-61
2021/10/10 02:00:55;;;;;;;28.55;15.13;;;;;;;4.96;59.57;101581.75;5032547;28;20116;-58
2021/10/10 02:03:20;;;;;;;27.45;14.27;;;;;;;4.92;59.76;101582.72;5034244;28;20428;-58
2021/10/10 02:05:46;;;;;;;27.35;14.38;;;;;;;4.93;59.49;101590.66;5016531;28;20026;-59
2021/10/10 02:08:12;;;;;;;26.35;14.20;;;;;;;4.69;60.10;101544.44;5034124;28;20060;-58
2021/10/10 02:10:38;;;;;;;25.42;13.80;;;;;;;4.48;60.29;101508.78;5033776;28;20528;-56
2021/10/10 02:13:03;;;;;;;23.10;13.77;;;;;;;4.91;59.47;101589.84;5034131;28;20052;-58
2021/10/10 02:15:28;;;;;;;26.85;13.45;;;;;;;4.94;58.94;101586.22;5033950;28;20061;-57
2021/10/10 02:17:54;;;;;;;25.02;13.90;;;;;;;4.91;59.71;101587.19;5033798;28;20028;-60
2021/10/10 02:20:19;;;;;;;23.77;12.70;;;;;;;4.89;59.42;101584.56;5033681;28;20029;-60
2021/10/10 02:22:45;;;;;;;26.33;14.43;;;;;;;4.87;59.51;101581.09;5034190;28;20044;-54
2021/10/10 02:25:10;;;;;;;23.73;13.35;;;;;;;4.86;59.63;101579.34;5033122;28;20116;-60
2021/10/10 02:27:36;;;;;;;24.48;13.73;;;;;;;4.82;59.99;101576.81;5033547;28;20061;-59
2021/10/10 02:30:02;;;;;;;22.08;13.85;;;;;;;4.79;60.09;101576.91;5032376;28;20079;-56
2021/10/10 02:32:28;;;;;;;22.52;13.52;;;;;;;4.82;60.15;101579.47;5033904;28;20025;-58
2021/10/10 02:34:54;;;;;;;25.88;14.18;;;;;;;4.82;59.92;101584.78;5033410;28;20075;-58
2021/10/10 02:37:19;;;;;;;29.85;13.60;;;;;;;4.81;60.49;101583.91;5032407;28;20480;-57
2021/10/10 02:39:45;;;;;;;26.63;13.70;;;;;;;4.81;60.08;101583.03;5032970;28;20088;-58
2021/10/10 02:42:10;;;;;;;26.90;12.95;;;;;;;4.80;60.15;101581.28;5034020;28;20135;-58
2021/10/10 02:44:36;;;;;;;23.55;13.43;;;;;;;4.78;60.13;101586.66;5033747;28;20083;-58
2021/10/10 02:47:02;;;;;;;29.75;14.70;;;;;;;4.56;60.22;101550.13;5033064;28;20041;-58
2021/10/10 02:49:28;;;;;;;28.75;13.90;;;;;;;4.70;60.49;101576.25;5032032;28;20060;-57
2021/10/10 02:51:53;;;;;;;30.02;14.65;;;;;;;4.66;60.45;101579.03;5033440;28;20037;-57
2021/10/10 02:54:18;;;;;;;28.30;14.32;;;;;;;4.69;60.37;101586.91;5031927;28;20041;-58
2021/10/10 02:56:44;;;;;;;26.85;13.57;;;;;;;4.64;60.40;101579.09;5031690;28;20037;-56
2021/10/10 02:59:09;;;;;;;23.90;14.00;;;;;;;4.66;61.01;101589.66;5033010;28;20025;-56
2021/10/10 03:01:35;;;;;;;23.27;13.93;;;;;;;4.63;60.61;101585.31;5032166;28;20488;-59
2021/10/10 03:04:00;;;;;;;22.58;13.68;;;;;;;4.64;61.24;101587.06;5031816;28;20036;-59
2021/10/10 03:06:26;;;;;;;25.65;13.50;;;;;;;4.63;61.17;101590.63;5032468;28;20029;-58
2021/10/10 03:08:52;;;;;;;27.90;13.38;;;;;;;4.63;61.56;101579.13;5032517;28;20095;-55
2021/10/10 03:11:18;;;;;;;20.30;13.07;;;;;;;4.64;60.80;101580.84;5031616;28;20395;-55
2021/10/10 03:13:44;;;;;;;25.20;13.68;;;;;;;4.59;61.24;101584.50;5033428;28;20393;-56
2021/10/10 03:16:10;;;;;;;25.13;14.32;;;;;;;4.62;60.95;101586.22;5032359;28;20037;-52
2021/10/10 03:18:35;;;;;;;24.80;13.52;;;;;;;4.53;61.39;101574.06;5031128;28;20149;-58
2021/10/10 03:21:01;;;;;;;24.15;13.90;;;;;;;4.56;61.05;101584.59;5032500;28;20034;-56
2021/10/10 03:23:26;;;;;;;27.30;14.00;;;;;;;4.59;61.06;101583.66;5031983;28;20462;-57
2021/10/10 03:25:52;;;;;;;26.45;13.75;;;;;;;4.40;61.52;101548.78;5032224;28;20478;-58
2021/10/10 03:28:17;;;;;;;25.80;13.40;;;;;;;4.54;61.64;101574.94;5031385;28;20033;-52
2021/10/10 03:30:43;;;;;;;28.33;14.05;;;;;;;4.54;61.58;101577.59;5031473;28;20033;-59
2021/10/10 03:33:09;;;;;;;25.23;13.18;;;;;;;4.59;61.29;101573.06;5030815;28;20033;-56
2021/10/10 03:35:34;;;;;;;24.13;13.82;;;;;;;4.56;61.17;101566.03;5031052;28;20036;-57
2021/10/10 03:38:01;;;;;;;23.45;12.50;;;;;;;4.60;61.60;101572.13;5030963;28;20037;-59
2021/10/10 03:40:28;;;;;;;24.13;13.32;;;;;;;4.64;61.45;101564.94;5031897;28;20112;-59
2021/10/10 03:42:53;;;;;;;27.77;12.88;;;;;;;4.65;61.17;101561.38;5032104;28;20108;-60
2021/10/10 03:45:19;;;;;;;24.05;12.68;;;;;;;4.67;60.84;101560.44;5030996;28;20440;-59
2021/10/10 03:47:45;;;;;;;23.85;12.75;;;;;;;4.67;61.09;101559.53;5032092;28;20081;-60
2021/10/10 03:50:10;;;;;;;22.40;12.18;;;;;;;4.69;60.59;101570.97;5031788;28;20025;-58
2021/10/10 03:52:36;;;;;;;26.65;13.10;;;;;;;4.63;60.72;101553.47;5032352;28;20458;-58
2021/10/10 03:57:30;;;;;;;24.40;12.48;;;;;;;4.67;60.25;101549.81;5031842;28;20037;-60
2021/10/10 04:00:02;;;;;;;22.15;12.73;;;;;;;4.80;60.58;101568.03;5032298;28;20032;-60
2021/10/10 04:02:28;;;;;;;28.58;17.55;;;;;;;4.84;60.30;101564.41;5032079;28;20025;-56
2021/10/10 04:04:54;;;;;;;32.75;19.67;;;;;;;4.66;59.59;101520.66;5031275;28;20319;-59
2021/10/10 04:07:20;;;;;;;33.38;20.67;;;;;;;4.98;59.48;101564.84;5032172;28;20080;-59
2021/10/10 04:09:46;;;;;;;29.05;19.70;;;;;;;5.04;59.18;101561.16;5032212;28;20470;-58
2021/10/10 04:12:12;;;;;;;29.83;18.77;;;;;;;5.10;59.10;101546.84;5029629;28;20043;-59
2021/10/10 04:14:38;;;;;;;30.17;17.13;;;;;;;5.30;59.03;101562.16;5031118;28;20037;-59
2021/10/10 04:17:04;;;;;;;33.38;17.48;;;;;;;5.44;57.78;101564.38;5031511;28;20045;-58
2021/10/10 04:19:31;;;;;;;32.78;17.35;;;;;;;5.51;57.26;101563.25;5031805;28;20473;-59
2021/10/10 04:21:56;;;;;;;38.30;18.40;;;;;;;5.67;57.12;101553.03;5031199;28;20437;-58
2021/10/10 04:24:22;;;;;;;32.50;16.85;;;;;;;5.83;56.84;101563.16;5031307;28;20052;-58
2021/10/10 04:26:47;;;;;;;27.27;16.58;;;;;;;5.91;56.52;101558.47;5032169;28;20041;-59
2021/10/10 04:29:13;;;;;;;36.08;16.55;;;;;;;6.08;56.41;101555.28;5031618;28;20037;-56
2021/10/10 04:31:38;;;;;;;31.60;17.08;;;;;;;6.23;55.86;101560.97;5031191;28;20025;-58
2021/10/10 04:34:03;;;;;;;35.08;16.05;;;;;;;6.38;55.42;101554.25;5031381;28;20029;-58
2021/10/10 04:36:29;;;;;;;35.17;16.20;;;;;;;6.36;54.65;101533.03;5031589;28;20037;-59
2021/10/10 04:38:55;;;;;;;30.33;15.38;;;;;;;6.73;54.26;101550.31;5031679;28;20045;-58
2021/10/10 04:41:20;;;;;;;25.95;14.70;;;;;;;6.94;53.58;101538.94;5031471;28;20029;-59
2021/10/10 04:43:46;;;;;;;29.48;14.70;;;;;;;7.41;52.12;101560.22;5029544;28;20025;-60
2021/10/10 04:46:12;;;;;;;29.17;15.25;;;;;;;7.84;51.37;101554.94;5031385;28;20037;-58
2021/10/10 04:48:37;;;;;;;28.25;15.00;;;;;;;8.25;50.28;101556.78;5031240;28;20477;-60
2021/10/10 04:51:03;;;;;;;24.58;13.90;;;;;;;8.59;49.28;101547.34;5027155;28;20037;-62
2021/10/10 04:53:28;;;;;;;31.50;14.73;;;;;;;9.02;48.35;101551.63;5036323;28;20029;-60
2021/10/10 04:55:54;;;;;;;27.60;14.35;;;;;;;9.54;46.68;101539.44;5044282;28;20037;-62
2021/10/10 04:58:19;;;;;;;27.02;13.73;;;;;;;10.28;44.87;101564.28;5029857;28;20080;-60
2021/10/10 05:00:45;;;;;;;21.58;13.20;;;;;;;11.20;42.34;101544.25;5030102;28;20025;-61
2021/10/10 05:03:10;;;;;;;21.63;12.02;;;;;;;12.15;39.92;101515.59;5029735;28;20033;-63
2021/10/10 05:05:36;;;;;;;22.45;11.57;;;;;;;13.31;37.98;101555.91;5029134;28;20052;-62
2021/10/10 05:08:01;;;;;;;25.23;11.85;;;;;;;14.15;35.98;101558.50;5029416;28;20416;-61
2021/10/10 05:10:27;;;;;;;22.42;11.63;;;;;;;14.90;34.22;101521.03;5030511;28;20094;-60
2021/10/10 05:12:52;;;;;;;21.40;12.20;;;;;;;16.00;32.48;101558.03;5029659;28;20064;-60
2021/10/10 05:15:18;;;;;;;24.40;12.25;;;;;;;17.04;30.87;101550.84;5030224;28;20122;-62
2021/10/10 05:17:44;;;;;;;26.23;11.70;;;;;;;18.37;28.69;101565.25;5030457;28;20022;-62
2021/10/10 05:20:10;;;;;;;24.80;11.98;;;;;;;19.65;26.53;101531.31;5028751;28;20091;-62
2021/10/10 05:22:35;;;;;;;27.38;12.57;;;;;;;21.17;24.35;101546.09;5030365;28;20029;-61
2021/10/10 05:25:01;;;;;;;22.65;12.52;;;;;;;22.41;22.48;101557.31;5028469;28;20021;-60
2021/10/10 05:27:28;;;;;;;21.70;12.50;;;;;;;23.53;21.35;101556.53;5030209;28;20044;-61
2021/10/10 05:29:53;;;;;;;21.15;12.20;;;;;;;24.43;20.02;101557.66;5029569;28;20038;-59
2021/10/10 05:32:19;;;;;;;23.17;12.18;;;;;;;25.15;18.49;101511.22;5030434;28;20533;-62
2021/10/10 05:34:44;;;;;;;22.30;12.25;;;;;;;26.17;17.67;101564.25;5029783;28;20100;-59
2021/10/10 05:37:10;;;;;;;20.92;12.23;;;;;;;27.01;16.88;101557.72;5030212;28;20026;-60
2021/10/10 05:39:35;;;;;;;21.48;11.77;;;;;;;27.64;15.83;101537.13;5029971;28;20030;-62
2021/10/10 05:42:01;;;;;;;20.40;12.27;;;;;;;28.49;15.38;101570.28;5029753;28;20523;-61
2021/10/10 05:44:27;;;;;;;18.85;11.68;;;;;;;29.08;14.49;101565.34;5028220;28;20037;-60
2021/10/10 05:46:52;;;;;;;19.90;12.23;;;;;;;29.60;13.71;101562.16;5030967;28;20041;-61
2021/10/10 05:49:18;;;;;;;19.63;11.45;;;;;;;30.04;13.42;101567.34;5028638;28;20389;-61
2021/10/10 05:51:46;;;;;;;16.70;10.50;;;;;;;30.40;12.71;101541.22;5029818;28;20861;-61
2021/10/10 05:54:14;;;;;;;14.30;11.27;;;;;;;30.85;12.84;101556.22;5029747;28;20143;-61
2021/10/10 05:56:39;;;;;;;20.00;10.95;;;;;;;31.56;11.66;101568.25;5029379;28;20036;-61
2021/10/10 05:59:14;;;;;;;20.92;10.70;;;;;;;32.13;11.51;101566.63;5029624;28;20029;-62
2021/10/10 06:01:39;;;;;;;18.47;10.80;;;;;;;32.74;11.22;101562.22;5048478;28;20366;-61
2021/10/10 06:04:05;;;;;;;20.90;10.73;;;;;;;33.04;10.57;101571.72;5051549;28;20028;-61
2021/10/10 06:06:31;;;;;;;15.63;11.35;;;;;;;33.49;10.19;101568.59;5053751;28;20029;-61
2021/10/10 06:08:57;;;;;;;19.23;10.88;;;;;;;33.89;9.80;101556.03;5053481;28;20048;-61
2021/10/10 06:11:23;;;;;;;16.17;11.00;;;;;;;34.24;9.83;101567.44;5052382;28;20064;-61
2021/10/10 06:13:49;;;;;;;22.23;10.73;;;;;;;34.52;9.49;101574.25;5053682;28;20132;-60
2021/10/10 06:16:15;;;;;;;21.67;10.70;;;;;;;34.77;9.63;101571.19;5053567;28;20060;-62
2021/10/10 06:18:41;;;;;;;19.50;10.75;;;;;;;35.13;9.24;101579.50;5053148;28;20052;-60
2021/10/10 06:21:07;;;;;;;19.00;11.32;;;;;;;35.37;8.77;101565.47;5053284;28;20036;-61
2021/10/10 06:23:32;;;;;;;15.20;10.23;;;;;;;35.52;8.85;101568.59;5053744;28;20029;-60
2021/10/10 06:25:58;;;;;;;19.67;10.75;;;;;;;35.91;8.50;101554.78;5052660;28;20033;-61
2021/10/10 06:28:23;;;;;;;18.25;11.05;;;;;;;36.42;7.97;101562.31;5053574;28;20060;-63
2021/10/10 06:30:49;;;;;;;18.90;10.30;;;;;;;36.59;7.93;101562.31;5053527;28;20435;-64
2021/10/10 06:33:15;;;;;;;14.25;10.05;;;;;;;36.85;8.17;101559.88;5053399;28;20033;-65
2021/10/10 06:35:40;;;;;;;16.65;9.85;;;;;;;37.22;7.43;101554.72;5052033;28;20431;-64
2021/10/10 06:38:06;;;;;;;12.43;9.50;;;;;;;37.41;7.83;101558.03;5034878;28;20036;-64
2021/10/10 06:40:31;;;;;;;17.35;10.23;;;;;;;37.56;7.64;101557.38;5051256;28;20029;-64
2021/10/10 06:42:57;;;;;;;14.60;9.93;;;;;;;37.65;7.63;101557.72;5053874;28;20385;-65
2021/10/10 06:45:22;;;;;;;15.40;9.77;;;;;;;37.94;7.16;101551.81;5053695;28;20052;-65
2021/10/10 06:47:48;;;;;;;15.23;9.57;;;;;;;38.08;7.05;101546.66;5052979;28;20112;-64
2021/10/10 06:50:14;;;;;;;14.30;10.18;;;;;;;38.30;6.96;101538.13;5052906;28;20362;-62
2021/10/10 06:52:39;;;;;;;13.25;9.63;;;;;;;38.28;6.72;101551.53;5052988;28;20033;-62
2021/10/10 06:55:05;;;;;;;16.33;9.45;;;;;;;38.26;7.06;101556.53;5052839;28;20033;-65
2021/10/10 06:57:32;;;;;;;13.85;9.80;;;;;;;38.27;7.04;101552.63;5052412;28;20035;-65
2021/10/10 07:00:00;;;;;;;14.75;10.63;;;;;;;38.35;7.06;101549.34;5042205;28;20040;-63
2021/10/10 07:02:29;;;;;;;16.40;9.80;;;;;;;38.43;6.79;101537.66;5015900;28;20075;-64
2021/10/10 07:04:56;;;;;;;12.32;9.48;;;;;;;38.69;7.04;101550.94;5033549;28;20033;-62
2021/10/10 07:07:23;;;;;;;13.65;8.82;;;;;;;38.55;6.66;101547.78;5032351;28;20029;-62
2021/10/10 07:09:48;;;;;;;13.98;8.82;;;;;;;38.30;6.62;101543.69;5032428;28;20527;-61
2021/10/10 07:12:14;;;;;;;17.23;8.55;;;;;;;37.84;6.89;101525.44;5031167;28;20033;-63
2021/10/10 07:14:40;;;;;;;11.75;8.38;;;;;;;37.51;7.48;101541.38;5031675;28;20115;-63
2021/10/10 07:17:05;;;;;;;12.95;8.18;;;;;;;37.43;6.97;101541.84;5031917;28;20401;-64
2021/10/10 07:19:43;;;;;;;11.50;8.30;;;;;;;37.36;7.00;101539.25;5031972;28;20049;-61
2021/10/10 07:22:25;;;;;;;14.32;8.65;;;;;;;37.21;7.40;101534.34;5032155;28;20118;-64
2021/10/10 07:25:09;;;;;;;15.77;8.45;;;;;;;36.97;7.24;101530.97;5039183;28;20021;-64
2021/10/10 07:27:38;;;;;;;13.05;9.32;;;;;;;36.68;7.49;101531.16;5041550;28;20127;-69
2021/10/10 07:30:04;;;;;;;12.10;8.27;;;;;;;35.86;8.04;101521.25;5032458;28;20033;-67
2021/10/10 07:32:31;;;;;;;14.23;8.90;;;;;;;35.18;8.49;101537.84;5030938;28;20034;-67
2021/10/10 07:34:57;;;;;;;11.45;8.82;;;;;;;33.87;9.46;101519.31;5031060;28;20128;-68
2021/10/10 07:37:22;;;;;;;18.58;8.20;;;;;;;31.86;10.84;101523.38;5030175;28;20030;-68
2021/10/10 07:39:48;;;;;;;13.52;8.63;;;;;;;29.40;12.55;101526.22;5013588;28;20033;-67
2021/10/10 07:42:14;;;;;;;16.35;9.20;;;;;;;27.15;14.62;101528.50;5030284;28;20503;-67
2021/10/10 07:44:44;;;;;;;17.00;9.05;;;;;;;24.83;16.39;101502.97;5031496;28;20037;-70
2021/10/10 07:50:02;;;;;;;15.43;8.50;;;;;;;21.59;20.39;101525.59;5030051;28;20065;-70
2021/10/10 07:52:28;;;;;;;14.98;8.15;;;;;;;20.45;21.69;101526.72;5030555;28;20057;-76
2021/10/10 07:54:53;;;;;;;17.30;7.70;;;;;;;19.57;22.87;101520.31;5013685;28;20040;-68
2021/10/10 07:57:19;;;;;;;17.40;8.10;;;;;;;18.94;23.90;101524.13;5029796;28;20522;-68
2021/10/10 07:59:44;;;;;;;14.02;7.20;;;;;;;18.25;24.59;101512.06;5031565;28;20033;-67
2021/10/10 08:02:10;;;;;;;13.70;8.50;;;;;;;18.00;25.22;101525.00;5030005;28;20037;-68
2021/10/10 08:04:35;;;;;;;16.10;8.00;;;;;;;17.46;25.91;101492.47;5042725;28;20025;-69
2021/10/10 08:07:01;;;;;;;17.08;7.15;;;;;;;17.33;26.20;101523.25;5050363;28;20181;-71
2021/10/10 08:09:26;;;;;;;13.18;7.65;;;;;;;17.11;26.67;101521.47;5050907;28;20468;-69
2021/10/10 08:11:52;;;;;;;14.73;7.50;;;;;;;16.71;26.83;101484.94;5049722;28;20045;-68
2021/10/10 08:14:17;;;;;;;20.13;7.38;;;;;;;16.81;27.07;101531.06;5050833;28;20257;-70
2021/10/10 08:16:44;;;;;;;10.10;6.65;;;;;;;16.69;27.25;101543.72;5050561;28;20028;-71
2021/10/10 08:19:09;;;;;;;13.35;6.65;;;;;;;16.53;27.71;101530.53;5050162;28;20056;-68
2021/10/10 08:21:35;;;;;;;17.02;6.32;;;;;;;16.46;28.13;101522.06;5047650;28;20059;-73
2021/10/10 08:24:02;;;;;;;11.95;6.45;;;;;;;16.42;28.12;101525.09;5049733;28;20055;-70
2021/10/10 08:26:28;;;;;;;10.05;5.75;;;;;;;16.32;27.97;101530.38;5049799;28;20039;-75
2021/10/10 08:28:55;;;;;;;10.52;5.68;;;;;;;16.26;28.14;101528.16;5032978;28;20214;-72
2021/10/10 08:31:20;;;;;;;9.60;5.75;;;;;;;16.20;28.17;101511.44;5032141;28;20028;-72
2021/10/10 08:33:46;;;;;;;9.68;5.85;;;;;;;16.30;28.59;101529.63;5047734;28;20075;-68
2021/10/10 08:36:11;;;;;;;14.82;5.40;;;;;;;16.35;28.14;101528.28;5048597;28;20025;-75
2021/10/10 08:38:37;;;;;;;10.50;5.80;;;;;;;16.32;28.27;101531.25;5049247;28;20029;-72
2021/10/10 08:41:04;;;;;;;10.18;5.65;;;;;;;16.11;29.07;101522.94;5031595;28;20029;-73
2021/10/10 08:43:31;;;;;;;8.65;5.35;;;;;;;15.97;29.26;101533.97;5031696;28;20068;-71
2021/10/10 08:46:03;;;;;;;10.30;5.10;;;;;;;16.01;28.82;101522.78;5049063;28;20037;-69
2021/10/10 08:48:29;;;;;;;10.40;5.30;;;;;;;16.03;29.05;101533.50;5049044;28;20047;-70
2021/10/10 08:50:55;;;;;;;9.05;4.97;;;;;;;15.82;28.74;101474.69;5033505;28;20032;-67
2021/10/10 08:53:22;;;;;;;12.20;5.65;;;;;;;15.62;28.79;101436.56;5046767;28;20037;-63
2021/10/10 08:55:49;;;;;;;10.55;4.45;;;;;;;16.24;28.53;101513.91;5040236;28;20388;-66
2021/10/10 08:58:19;;;;;;;11.48;4.72;;;;;;;16.34;28.46;101517.59;5049002;28;20024;-62
2021/10/10 09:01:04;;;;;;;8.02;4.57;;;;;;;16.35;28.14;101509.38;5050240;28;20033;-64
2021/10/10 09:03:30;;;;;;;11.40;4.70;;;;;;;16.36;28.56;101516.50;5050179;28;20025;-64
2021/10/10 09:05:57;;;;;;;9.50;4.88;;;;;;;16.28;28.46;101518.94;5058615;28;20074;-64
2021/10/10 09:08:22;;;;;;;10.57;5.07;;;;;;;16.16;28.87;101507.25;5052111;28;20031;-56
2021/10/10 09:11:01;;;;;;;13.40;5.25;;;;;;;16.31;28.40;101507.03;5070698;28;20040;-58
2021/10/10 09:13:39;;;;;;;8.48;4.55;;;;;;;16.29;28.34;101509.00;5052350;28;20042;-64
2021/10/10 09:16:07;;;;;;;12.00;4.88;;;;;;;16.25;28.93;101512.91;5063451;28;20090;-70
2021/10/10 09:18:40;;;;;;;8.52;4.90;;;;;;;16.00;28.95;101471.59;5050178;28;20064;-72
2021/10/10 09:21:31;;;;;;;6.75;4.90;;;;;;;16.39;27.90;101509.13;5032250;28;20033;-66
2021/10/10 09:23:57;;;;;;;9.40;4.45;;;;;;;16.19;28.29;101498.91;5031699;28;20112;-66
2021/10/10 09:26:23;;;;;;;16.10;5.38;;;;;;;16.15;28.64;101501.97;5050301;28;20044;-67
2021/10/10 09:28:50;;;;;;;9.68;4.95;;;;;;;16.12;28.93;101503.03;5049566;28;20036;-67
2021/10/10 09:31:16;;;;;;;11.50;5.03;;;;;;;16.05;29.04;101485.59;5012831;28;20044;-67
2021/10/10 09:33:44;;;;;;;11.32;5.40;;;;;;;16.18;29.05;101501.72;5028823;28;20030;-66
2021/10/10 09:36:22;;;;;;;11.48;5.57;;;;;;;16.37;28.79;101509.25;5030088;28;20040;-65
2021/10/10 09:38:58;;;;;;;14.77;5.93;;;;;;;16.41;28.84;101482.84;5033075;28;20038;-66
2021/10/10 09:41:28;;;;;;;11.55;5.72;;;;;;;16.49;28.70;101500.19;5034511;28;20039;-66
2021/10/10 09:44:10;;;;;;;10.75;5.53;;;;;;;16.52;28.74;101485.56;5033976;28;20481;-67
2021/10/10 09:46:47;;;;;;;12.20;5.88;;;;;;;16.46;28.93;101486.91;5016533;28;20033;-65
2021/10/10 09:49:30;;;;;;;12.27;5.82;;;;;;;16.53;28.70;101489.13;5016099;28;20025;-67
2021/10/10 09:52:07;;;;;;;15.23;6.70;;;;;;;16.55;28.69;101493.44;5034270;28;20025;-65
2021/10/10 09:54:59;;;;;;;8.48;5.75;;;;;;;16.51;28.96;101481.09;5016443;28;20033;-66
2021/10/10 09:57:32;;;;;;;13.07;6.70;;;;;;;16.47;29.12;101488.63;5033968;28;20108;-68
2021/10/10 09:59:57;;;;;;;11.98;6.38;;;;;;;16.48;29.40;101484.06;5032660;28;20473;-67
2021/10/10 10:02:39;;;;;;;10.68;6.38;;;;;;;16.41;28.78;101450.41;5033663;28;20091;-68
2021/10/10 10:05:05;;;;;;;13.82;6.75;;;;;;;16.38;29.42;101481.22;5033978;28;20034;-68
2021/10/10 10:07:31;;;;;;;12.15;6.80;;;;;;;16.38;29.43;101489.34;5033396;28;20358;-68
2021/10/10 10:09:56;;;;;;;13.48;6.93;;;;;;;16.36;29.65;101478.66;5032994;28;20050;-66
2021/10/10 10:12:26;;;;;;;18.65;7.45;;;;;;;16.39;29.92;101474.00;5033573;28;20460;-67
2021/10/10 10:14:54;;;;;;;15.00;7.03;;;;;;;16.30;29.79;101480.97;5032844;28;20122;-67
2021/10/10 10:17:24;;;;;;;11.82;6.25;;;;;;;16.27;29.78;101476.66;5031548;28;20453;-66
2021/10/10 10:19:55;;;;;;;13.68;5.97;;;;;;;16.19;29.84;101477.28;5033242;28;20045;-66
2021/10/10 10:22:22;;;;;;;12.82;5.95;;;;;;;16.07;30.08;101479.09;5032703;28;20061;-67
2021/10/10 10:24:48;;;;;;;12.40;5.70;;;;;;;16.09;29.83;101467.31;5033906;28;20033;-70
2021/10/10 10:27:15;;;;;;;11.65;6.05;;;;;;;16.09;30.27;101473.56;5015793;28;20059;-65
2021/10/10 10:29:44;;;;;;;17.33;6.13;;;;;;;16.09;29.68;101468.16;5033521;28;20028;-67
2021/10/10 10:32:12;;;;;;;8.88;5.63;;;;;;;16.06;30.35;101468.41;5032995;28;20052;-66
2021/10/10 10:34:38;;;;;;;11.20;6.05;;;;;;;16.06;30.02;101465.72;5033798;28;20037;-73
2021/10/10 10:37:09;;;;;;;10.00;5.47;;;;;;;16.10;29.88;101469.88;5037547;28;20036;-68
2021/10/10 10:39:45;;;;;;;11.52;5.75;;;;;;;16.11;30.09;101466.19;5054908;28;20434;-69
2021/10/10 10:42:35;;;;;;;8.57;4.97;;;;;;;16.13;29.75;101458.00;5066432;28;20056;-69
2021/10/10 10:45:01;;;;;;;7.55;5.18;;;;;;;15.84;30.07;101451.13;5059392;28;20024;-72
2021/10/10 10:47:40;;;;;;;11.15;5.22;;;;;;;15.96;29.80;101459.31;5056032;28;20028;-72
2021/10/10 10:50:12;;;;;;;11.18;5.50;;;;;;;15.91;30.11;101463.22;5064386;28;20373;-72
2021/10/10 10:52:39;;;;;;;11.63;5.85;;;;;;;15.92;30.46;101451.44;5062391;28;20472;-75
2021/10/10 10:55:05;;;;;;;12.43;5.75;;;;;;;15.95;30.00;101446.78;5019870;28;20033;-69
2021/10/10 10:57:31;;;;;;;9.73;5.72;;;;;;;16.04;30.12;101452.34;5054568;28;20032;-71
2021/10/10 11:00:11;;;;;;;8.93;5.40;;;;;;;16.15;29.76;101456.03;5052674;28;20041;-73
2021/10/10 11:02:53;;;;;;;15.40;5.32;;;;;;;16.02;29.71;101416.44;5034635;28;20040;-73
2021/10/10 11:05:31;;;;;;;7.72;5.18;;;;;;;16.06;29.57;101427.88;5051336;28;20426;-73
2021/10/10 11:08:02;;;;;;;10.65;5.05;;;;;;;16.11;29.77;101450.00;5035026;28;20029;-72
2021/10/10 11:10:29;;;;;;;13.90;5.60;;;;;;;16.10;29.56;101452.81;5051052;28;20049;-72
2021/10/10 11:13:07;;;;;;;9.25;5.72;;;;;;;16.00;29.76;101441.88;5050539;28;20037;-75
2021/10/10 11:15:52;;;;;;;9.60;5.40;;;;;;;16.10;29.63;101444.72;5050058;28;20036;-75
2021/10/10 11:18:18;;;;;;;11.00;5.45;;;;;;;15.97;30.16;101437.56;5051098;28;20033;-72
2021/10/10 11:20:55;;;;;;;9.70;5.22;;;;;;;15.95;30.02;101423.31;5051403;28;20033;-73
2021/10/10 11:23:22;;;;;;;9.27;4.97;;;;;;;15.89;30.34;101430.06;5051333;28;20059;-74